Airfield :
LOGIN :

Register | Disclaimer

   EN    FR    IT 

 










Legend :    VFR   Marginal VFR   IFR   Intensive IFR   Very Intensive IFR
Visi :
Ceiling :
>= 8 km
>= 3000ft
5 to 8 km
1000 to 3000 ft
1500m to 5 km
500 to 1000 ft
800 to 1500m
200 to 500 ft
< 800m
< 200 ft
Symbols :   Thunderstorms  Fog  Heavy snow  Heavy precipitations  Wind > 20 kt
SIGMETs :     Misc.  Thunderstorms  Icing  Turbulence  Mountain Waves  Volcanic Ashes






- Airport Elevation : 3368 ft


LSGC - Les Eplatures

CURRENT METAR :
  • 200020Z AUTO VRB04KT 4900 SN BKN006 01/01 Q1014 RERASN

EXPIRED METARs :
  • 192350Z AUTO VRB03KT 9999 -SN OVC005 01/01 Q1014 RERASN
  • 192320Z AUTO 22005KT 3000 -SN BKN003 01/01 Q1014
  • 192250Z AUTO 22006KT 2700 BR OVC006 01/01 Q1014
  • 192220Z AUTO 23005KT 9999 FEW002 OVC006 00/00 Q1014 RESN
  • 192150Z AUTO 22005KT 7000 -SN BKN004 OVC006 01/01 Q1014 RERASN
  • 192120Z AUTO VRB02KT 9999 -SN BKN006 01/01 Q1014 REFZDZ
  • 192050Z AUTO 00000KT 1300 -SN VV009 01/01 Q1014 REFZDZ
  • 192020Z AUTO VRB01KT 2000 -SN OVC007 01/01 Q1014
  • 191950Z AUTO 22004KT 2600 -SN BKN006 00/00 Q1014

Expired Forecast.



MET'MAP, your aeronautical weather chart ! - Copyright ORBIFLY December 2007 - Disclaimer

ORBIFLY MET'MAP TEAM :

Programming & Development : Alexandra Zaïnal
Original concept : Baudouin d'Aumeries
Technical & hardware support : Manuel Goepfert
Assistance : Marc-Olivier Méhu




SOURCES & CREDITS :

   NOAA